Terminal Aerodrome Forecast
Issued by NWS

Home | Current Version | Previous Version | Text Only | Print | Product List | Glossary On
Versions: 1 2 3 4 5 6 7 8 9 10 11 12 13 14 15 16 17 18 19 20 21 22 23 24 25 26 27 28 29 30 31 32 33 34 35 36
000
FTUS45 KSLC 210013 AAA
TAFBCE
TAF AMD
KBCE 210013Z 2100/2124 30011KT 6SM -SHSN BKN020 OVC035
      TEMPO 2100/2102 1SM -SN SCT004 BKN015
     FM210300 31015G23KT P6SM VCSH SCT015 BKN035
     FM211600 32013G20KT P6SM SCT040=

USA.gov is the U.S. government's official web portal to all federal, state and local government web resources and services.